Time;durP1;ratioP1;P1;durP2;ratioP2;P2;SDS_P1;SDS_P2;PMS_P1;PMS_P2;Temp;Humidity;BMP_temperature;BMP_pressure;BME280_temperature;BME280_humidity;BME280_pressure;Samples;Min_cycle;Max_cycle;Signal;HPM_P1;HPM_P2
2022/09/19 00:04:01;;;;;;;3.17;1.47;;;10.60;99.90;;;;;;10566219;28;20205;-80
2022/09/19 00:09:25;;;;;;;5.90;2.03;;;10.60;99.90;;;;;;10551004;28;20211;-81
2022/09/19 00:14:47;;;;;;;3.90;1.70;;;10.60;99.90;;;;;;10553812;28;20230;-84
2022/09/19 00:20:10;;;;;;;3.00;1.53;;;10.70;99.90;;;;;;10525712;28;20196;-80
2022/09/19 00:25:32;;;;;;;2.93;1.27;;;10.70;99.90;;;;;;10546480;28;20202;-81
2022/09/19 00:30:55;;;;;;;5.83;1.23;;;10.70;99.90;;;;;;10564890;28;20310;-81
2022/09/19 00:36:17;;;;;;;2.57;1.20;;;10.60;99.90;;;;;;10536247;28;20237;-81
2022/09/19 00:41:40;;;;;;;10.40;2.17;;;10.60;99.90;;;;;;10550893;28;20192;-84
2022/09/19 00:47:24;;;;;;;4.87;1.40;;;10.60;99.90;;;;;;10550433;28;20183;-81
2022/09/19 00:52:54;;;;;;;5.10;1.70;;;10.50;99.90;;;;;;10522491;28;20293;-81
2022/09/19 00:58:44;;;;;;;6.40;1.40;;;10.50;99.90;;;;;;10547917;28;20183;-81
2022/09/19 01:04:21;;;;;;;3.97;1.40;;;10.60;99.90;;;;;;10536597;28;20200;-83
2022/09/19 01:09:49;;;;;;;3.23;1.33;;;10.50;99.90;;;;;;10562657;28;20227;-81
2022/09/19 01:15:53;;;;;;;4.67;1.73;;;10.60;99.90;;;;;;10551801;28;20205;-81
2022/09/19 01:21:40;;;;;;;11.97;1.53;;;10.50;99.90;;;;;;10528582;28;20253;-81
2022/09/19 01:27:06;;;;;;;4.87;1.53;;;10.50;99.90;;;;;;10548189;28;20202;-81
2022/09/19 01:32:34;;;;;;;3.17;1.37;;;10.40;99.90;;;;;;10547986;28;20554;-81
2022/09/19 01:38:15;;;;;;;3.93;1.40;;;10.40;99.90;;;;;;10547977;28;20193;-82
2022/09/19 01:43:37;;;;;;;3.97;1.43;;;10.40;99.90;;;;;;10534070;28;20211;-81
2022/09/19 01:49:16;;;;;;;4.13;1.47;;;10.30;99.90;;;;;;10561605;28;20228;-81
2022/09/19 01:54:43;;;;;;;4.70;1.33;;;10.40;99.90;;;;;;10547636;28;20213;-81
2022/09/19 02:00:16;;;;;;;6.50;1.47;;;10.50;99.90;;;;;;10547286;28;20219;-82
2022/09/19 02:06:19;;;;;;;2.30;1.07;;;10.50;99.90;;;;;;10560024;28;20537;-86
2022/09/19 02:11:42;;;;;;;2.60;1.30;;;10.50;99.90;;;;;;10504730;28;20224;-81
2022/09/19 02:17:15;;;;;;;3.73;1.10;;;10.50;99.90;;;;;;10518455;28;20233;-83
2022/09/19 02:29:16;;;;;;;4.13;1.80;;;10.50;99.90;;;;;;10547300;28;20181;-81
2022/09/19 02:35:43;;;;;;;2.83;1.40;;;10.50;99.90;;;;;;10548240;28;20229;-81
2022/09/19 02:41:21;;;;;;;4.83;1.77;;;10.50;99.90;;;;;;10569068;28;20249;-83
2022/09/19 02:46:55;;;;;;;2.07;1.43;;;10.60;99.90;;;;;;10560964;28;20184;-80
2022/09/19 02:52:30;;;;;;;6.67;2.10;;;10.60;99.90;;;;;;10533419;28;20431;-81
2022/09/19 02:58:02;;;;;;;3.83;2.70;;;10.60;99.90;;;;;;10546885;28;20199;-81
2022/09/19 03:10:13;;;;;;;5.10;1.57;;;10.60;99.90;;;;;;10541847;28;20273;-81
2022/09/19 03:16:00;;;;;;;5.07;1.77;;;10.60;99.90;;;;;;10545622;28;20209;-80
2022/09/19 03:21:27;;;;;;;5.30;2.03;;;10.50;99.90;;;;;;10535589;28;20488;-80
2022/09/19 03:26:49;;;;;;;2.83;1.60;;;10.50;99.90;;;;;;10551007;28;20493;-84
2022/09/19 03:32:11;;;;;;;3.73;1.53;;;10.50;99.90;;;;;;10510893;28;20319;-80
2022/09/19 03:37:33;;;;;;;3.83;1.30;;;10.40;99.90;;;;;;10501608;28;20189;-82
2022/09/19 03:42:55;;;;;;;5.97;1.50;;;10.40;99.90;;;;;;10552846;28;20510;-80
2022/09/19 03:48:20;;;;;;;5.90;1.63;;;10.40;99.90;;;;;;10552525;28;20389;-82
2022/09/19 03:53:42;;;;;;;2.70;1.17;;;10.40;99.90;;;;;;10566649;28;20619;-80
2022/09/19 03:59:04;;;;;;;2.30;1.30;;;10.40;99.90;;;;;;10551687;28;20197;-81
2022/09/19 04:04:27;;;;;;;3.10;1.30;;;10.30;99.90;;;;;;10511442;28;20201;-81
2022/09/19 04:09:50;;;;;;;2.73;1.10;;;10.30;99.90;;;;;;10532112;28;20200;-81
2022/09/19 04:15:11;;;;;;;4.70;1.30;;;10.30;99.90;;;;;;10551380;28;20487;-81
2022/09/19 04:20:35;;;;;;;4.20;1.57;;;10.30;99.90;;;;;;10549333;28;20195;-81
2022/09/19 04:26:17;;;;;;;3.93;1.50;;;10.30;99.90;;;;;;10492722;28;20205;-80
2022/09/19 04:31:41;;;;;;;3.87;1.60;;;10.30;99.90;;;;;;10506180;28;20237;-82
2022/09/19 04:37:06;;;;;;;5.40;1.40;;;10.30;99.90;;;;;;10489604;28;20533;-82
2022/09/19 04:42:34;;;;;;;3.30;1.63;;;10.20;99.90;;;;;;10503360;28;20272;-82
2022/09/19 04:47:58;;;;;;;2.57;1.43;;;10.30;99.90;;;;;;10486962;28;20202;-83
2022/09/19 04:53:24;;;;;;;3.90;1.27;;;10.30;99.90;;;;;;10448035;28;20261;-82
2022/09/19 04:58:49;;;;;;;2.27;1.40;;;10.40;99.90;;;;;;10457190;28;20500;-84
2022/09/19 05:04:10;;;;;;;1.63;1.30;;;10.40;99.90;;;;;;10548008;28;20216;-84
2022/09/19 05:09:32;;;;;;;3.43;1.50;;;10.40;99.90;;;;;;10535387;28;20214;-83
2022/09/19 05:14:58;;;;;;;2.70;2.10;;;10.40;99.90;;;;;;10550209;28;20545;-81
2022/09/19 05:20:20;;;;;;;3.77;1.93;;;10.40;99.90;;;;;;10550456;28;20237;-81
2022/09/19 05:25:42;;;;;;;2.93;1.70;;;10.50;99.90;;;;;;10526713;28;20205;-85
2022/09/19 05:31:07;;;;;;;4.80;2.80;;;10.50;99.90;;;;;;10523295;28;20244;-83
2022/09/19 05:36:32;;;;;;;5.00;3.60;;;10.60;99.90;;;;;;10523274;28;20463;-82
2022/09/19 05:42:32;;;;;;;4.47;2.67;;;10.60;99.90;;;;;;10453252;28;20214;-86
2022/09/19 05:48:04;;;;;;;3.80;1.80;;;10.70;99.90;;;;;;10445438;28;20201;-82
2022/09/19 05:59:20;;;;;;;5.27;1.60;;;10.60;99.90;;;;;;10461080;28;20196;-85
2022/09/19 06:04:43;;;;;;;3.77;1.60;;;10.70;99.90;;;;;;10462289;28;20603;-85
2022/09/19 06:10:06;;;;;;;3.23;1.63;;;10.70;99.90;;;;;;10481419;28;20213;-87
2022/09/19 06:15:28;;;;;;;4.93;2.13;;;10.70;99.90;;;;;;10519486;28;20488;-81
2022/09/19 06:20:50;;;;;;;7.33;2.33;;;10.80;99.90;;;;;;10518340;28;20235;-85
2022/09/19 06:26:21;;;;;;;4.50;2.07;;;10.80;99.90;;;;;;10530470;28;20205;-84
2022/09/19 06:31:43;;;;;;;5.57;2.63;;;10.80;99.90;;;;;;10546457;28;20243;-83
2022/09/19 06:37:11;;;;;;;5.73;2.00;;;10.80;99.90;;;;;;10560827;28;20219;-84
2022/09/19 06:42:32;;;;;;;3.10;1.57;;;10.90;99.90;;;;;;10546353;28;20437;-86
2022/09/19 06:48:25;;;;;;;4.03;2.57;;;10.90;99.90;;;;;;10545342;28;20188;-87
2022/09/19 06:54:05;;;;;;;4.33;2.40;;;11.10;99.90;;;;;;10561052;28;20518;-83
2022/09/19 06:59:27;;;;;;;4.03;2.17;;;11.40;99.90;;;;;;10564249;28;20193;-85
2022/09/19 07:04:49;;;;;;;4.13;2.20;;;11.90;99.90;;;;;;10555240;28;20213;-86
2022/09/19 07:10:37;;;;;;;6.77;1.90;;;12.30;43.20;;;;;;10557429;28;20313;-84
2022/09/19 07:16:03;;;;;;;4.67;1.90;;;12.50;1.00;;;;;;10558855;28;20200;-82
2022/09/19 07:21:25;;;;;;;3.43;2.10;;;12.70;1.00;;;;;;10536886;28;20216;-83
2022/09/19 07:26:50;;;;;;;3.97;1.33;;;;;;;;;;10538136;28;20218;-81
2022/09/19 07:32:14;;;;;;;4.28;1.95;;;13.90;1.00;;;;;;10563301;28;20256;-82
2022/09/19 07:37:36;;;;;;;3.23;1.63;;;14.10;1.00;;;;;;10549023;28;20185;-82
2022/09/19 07:43:36;;;;;;;2.60;1.60;;;14.30;99.90;;;;;;10458716;28;20574;-80
2022/09/19 07:49:06;;;;;;;2.83;1.52;;;15.60;99.90;;;;;;10463125;28;20212;-80
2022/09/19 07:54:57;;;;;;;2.13;1.30;;;16.70;1.00;;;;;;10464248;28;20261;-80
2022/09/19 08:00:19;;;;;;;3.60;2.00;;;17.10;99.90;;;;;;10406762;28;20258;-85
2022/09/19 08:05:52;;;;;;;9.93;6.30;;;16.60;99.20;;;;;;10418330;28;20207;-80
2022/09/19 08:11:13;;;;;;;2.75;2.17;;;15.90;99.90;;;;;;10439865;28;20531;-82
2022/09/19 08:16:34;;;;;;;3.65;1.42;;;15.60;99.90;;;;;;10532566;28;20245;-82
2022/09/19 08:21:59;;;;;;;1.27;0.70;;;15.50;99.90;;;;;;10528921;28;20563;-80
2022/09/19 08:27:28;;;;;;;2.05;1.00;;;15.40;99.90;;;;;;10538069;28;20375;-82
2022/09/19 08:32:50;;;;;;;2.40;1.43;;;15.10;1.00;;;;;;10545125;28;20234;-82
2022/09/19 08:38:13;;;;;;;1.40;1.13;;;15.10;1.00;;;;;;10557895;28;20496;-81
2022/09/19 08:43:58;;;;;;;2.60;1.20;;;14.80;1.00;;;;;;10559211;28;20251;-80
2022/09/19 08:49:31;;;;;;;4.40;1.30;;;14.50;74.20;;;;;;10544609;28;20239;-82
2022/09/19 08:54:56;;;;;;;4.00;1.60;;;14.30;99.90;;;;;;10544841;28;20299;-80
2022/09/19 09:00:31;;;;;;;4.23;1.97;;;14.20;1.00;;;;;;10557546;28;20201;-79
2022/09/19 09:06:31;;;;;;;2.20;1.10;;;14.20;1.00;;;;;;10543673;28;20202;-81
2022/09/19 09:12:17;;;;;;;1.83;1.00;;;14.20;1.00;;;;;;10516104;28;20246;-81
2022/09/19 09:17:59;;;;;;;2.57;1.50;;;14.20;99.90;;;;;;10503152;28;20277;-81
2022/09/19 09:23:34;;;;;;;4.97;1.33;;;14.30;1.00;;;;;;10528576;28;20200;-81
2022/09/19 09:29:32;;;;;;;1.48;1.25;;;15.10;99.90;;;;;;10523901;28;20206;-82
2022/09/19 09:35:18;;;;;;;1.60;1.20;;;15.60;31.90;;;;;;10543928;28;20316;-81
2022/09/19 09:46:58;;;;;;;2.13;1.27;;;15.40;10.30;;;;;;10516681;28;20233;-81
2022/09/19 09:52:34;;;;;;;1.55;1.13;;;15.60;1.00;;;;;;10534771;28;20444;-80
2022/09/19 09:58:23;;;;;;;0.68;0.68;;;16.00;1.00;;;;;;10528056;28;20540;-81
2022/09/19 10:03:56;;;;;;;2.00;0.80;;;16.40;1.00;;;;;;10518101;28;20210;-81
2022/09/19 10:09:57;;;;;;;1.27;0.88;;;18.20;1.00;;;;;;10522656;28;20191;-83
2022/09/19 10:15:22;;;;;;;2.17;1.10;;;20.10;1.00;;;;;;10503931;28;20240;-82
2022/09/19 10:20:52;;;;;;;1.23;1.00;;;21.50;1.00;;;;;;10516355;28;20198;-83
2022/09/19 10:26:27;;;;;;;1.42;1.10;;;22.40;1.00;;;;;;10527852;28;20435;-80
2022/09/19 10:31:52;;;;;;;1.30;1.20;;;22.30;1.00;;;;;;10541117;28;20264;-81
2022/09/19 10:37:15;;;;;;;4.03;1.23;;;21.60;99.90;;;;;;10555525;28;20202;-81
2022/09/19 10:42:42;;;;;;;3.83;2.55;;;19.70;99.90;;;;;;10509579;28;20282;-80
2022/09/19 10:48:28;;;;;;;1.52;0.90;;;19.30;1.00;;;;;;10498370;28;20199;-80
2022/09/19 10:53:56;;;;;;;2.78;1.30;;;20.00;1.00;;;;;;10498582;28;20246;-81
2022/09/19 10:59:35;;;;;;;1.75;1.17;;;19.40;99.90;;;;;;10517952;28;20186;-81
2022/09/19 11:05:27;;;;;;;1.25;0.82;;;18.00;1.00;;;;;;10543682;28;20204;-81
2022/09/19 11:10:48;;;;;;;1.15;0.63;;;16.90;99.90;;;;;;10553581;28;20387;-79
2022/09/19 11:16:29;;;;;;;2.45;1.38;;;16.50;99.90;;;;;;10506795;28;20213;-78
2022/09/19 11:22:19;;;;;;;2.00;1.00;;;16.50;35.60;;;;;;10537818;28;20200;-80
2022/09/19 11:27:41;;;;;;;1.83;0.88;;;16.80;61.50;;;;;;10540253;28;20203;-80
2022/09/19 11:33:53;;;;;;;1.10;0.95;;;16.10;1.00;;;;;;10539431;28;20235;-81
2022/09/19 11:40:34;;;;;;;0.65;0.60;;;15.30;1.00;;;;;;10551390;28;20236;-80
2022/09/19 11:46:03;;;;;;;1.70;0.93;;;14.60;99.90;;;;;;10466678;28;20198;-81
2022/09/19 11:51:37;;;;;;;3.10;1.70;;;14.30;1.00;;;;;;10501768;28;20242;-81
2022/09/19 11:57:21;;;;;;;2.37;1.80;;;14.20;99.90;;;;;;10501513;28;20563;-80
2022/09/19 12:02:44;;;;;;;3.63;1.40;;;14.30;99.90;;;;;;10462468;28;20228;-81
2022/09/19 12:08:07;;;;;;;1.88;1.45;;;14.70;1.00;;;;;;10484681;28;20552;-78
2022/09/19 12:13:48;;;;;;;3.03;1.33;;;15.00;1.00;;;;;;10514484;28;20230;-81
2022/09/19 12:19:38;;;;;;;4.57;2.10;;;15.00;1.00;;;;;;10520735;28;20285;-81
2022/09/19 12:25:01;;;;;;;1.63;1.40;;;15.00;1.00;;;;;;10533496;28;20385;-78
2022/09/19 12:30:25;;;;;;;1.97;1.53;;;15.00;1.00;;;;;;10512122;28;20272;-80
2022/09/19 12:36:10;;;;;;;2.28;1.75;;;15.20;1.00;;;;;;10535660;28;20235;-78
2022/09/19 12:41:57;;;;;;;2.35;1.50;;;15.60;1.00;;;;;;10541076;28;20196;-87
2022/09/19 12:47:26;;;;;;;4.30;1.77;;;16.60;1.00;;;;;;10526505;28;20451;-79
2022/09/19 12:53:15;;;;;;;1.20;0.70;;;17.50;1.00;;;;;;10537590;28;20555;-82
2022/09/19 12:58:58;;;;;;;2.58;1.70;;;18.20;1.00;;;;;;10529351;28;20273;-84
2022/09/19 13:04:25;;;;;;;2.05;1.17;;;19.00;1.00;;;;;;10515666;28;20449;-81
2022/09/19 13:10:14;;;;;;;1.95;1.35;;;19.40;1.00;;;;;;10540813;28;20203;-81
2022/09/19 13:16:02;;;;;;;2.97;1.80;;;20.20;1.00;;;;;;10528915;28;20241;-84
2022/09/19 13:27:15;;;;;;;2.80;1.65;;;20.30;1.00;;;;;;10529079;28;20233;-84
2022/09/19 13:32:57;;;;;;;1.63;1.08;;;19.90;1.00;;;;;;10519230;28;20256;-79
2022/09/19 13:38:35;;;;;;;2.95;1.27;;;19.40;1.00;;;;;;10519331;28;20236;-81
2022/09/19 13:44:27;;;;;;;2.13;0.90;;;19.20;1.00;;;;;;10511446;28;20197;-83
2022/09/19 13:49:55;;;;;;;0.85;0.80;;;19.60;1.00;;;;;;10542641;28;20200;-84
2022/09/19 13:55:30;;;;;;;2.45;1.52;;;19.20;1.00;;;;;;10524671;28;20233;-86
2022/09/19 14:01:07;;;;;;;1.33;0.90;;;18.50;1.00;;;;;;10523994;28;20258;-83
2022/09/19 14:06:31;;;;;;;4.25;2.75;;;18.40;1.00;;;;;;10524125;28;20258;-88
2022/09/19 14:11:55;;;;;;;1.60;0.80;;;18.40;1.00;;;;;;10533696;28;20607;-81
2022/09/19 14:17:19;;;;;;;1.75;0.60;;;18.00;1.00;;;;;;10537943;28;20476;-87
2022/09/19 14:22:44;;;;;;;1.83;0.70;;;17.60;1.00;;;;;;10519232;28;20240;-80
2022/09/19 14:29:05;;;;;;;0.80;0.80;;;17.40;1.00;;;;;;10547666;28;20206;-79
2022/09/19 14:34:47;;;;;;;0.60;0.60;;;17.30;99.90;;;;;;10446510;28;20245;-84
2022/09/19 14:40:27;;;;;;;1.98;1.10;;;17.20;99.90;;;;;;10482718;28;20197;-81
2022/09/19 14:51:33;;;;;;;2.05;1.35;;;16.50;1.00;;;;;;10476577;28;20217;-81
2022/09/19 14:57:01;;;;;;;2.40;1.52;;;16.10;99.90;;;;;;10477372;28;20234;-79
2022/09/19 15:02:28;;;;;;;1.73;1.10;;;16.00;99.90;;;;;;10507149;28;20221;-82
2022/09/19 15:07:52;;;;;;;2.65;1.17;;;15.90;99.90;;;;;;10525321;28;20552;-89
2022/09/19 15:13:19;;;;;;;4.43;1.70;;;15.70;99.90;;;;;;10529598;28;20274;-85
2022/09/19 15:18:45;;;;;;;8.40;3.35;;;15.40;1.00;;;;;;10519625;28;20197;-86
2022/09/19 15:24:11;;;;;;;4.18;2.17;;;15.10;1.00;;;;;;10579211;28;20191;-79
2022/09/19 15:29:36;;;;;;;2.90;1.90;;;14.90;99.90;;;;;;10567430;28;20197;-79
2022/09/19 15:34:58;;;;;;;3.28;2.00;;;14.90;1.00;;;;;;10566984;28;20245;-79
2022/09/19 15:40:23;;;;;;;4.17;2.70;;;14.80;1.00;;;;;;10552931;28;20201;-81
2022/09/19 15:45:51;;;;;;;4.75;1.80;;;14.80;1.00;;;;;;10552864;28;20199;-81
2022/09/19 15:51:28;;;;;;;5.90;3.63;;;14.70;1.00;;;;;;10511333;28;20206;-80
2022/09/19 15:56:49;;;;;;;4.28;2.65;;;14.70;1.00;;;;;;10520413;28;20274;-79
2022/09/19 16:02:20;;;;;;;5.55;3.33;;;14.60;1.00;;;;;;10529827;28;20225;-80
2022/09/19 16:13:41;;;;;;;11.30;6.20;;;14.50;99.90;;;;;;10566941;28;20228;-79
2022/09/19 16:19:03;;;;;;;10.33;2.80;;;14.40;1.00;;;;;;10565277;28;20455;-80
2022/09/19 16:24:28;;;;;;;7.40;3.42;;;14.30;1.00;;;;;;10532753;28;20189;-81
2022/09/19 16:29:50;;;;;;;8.57;4.38;;;14.30;30.30;;;;;;10551305;28;20527;-84
2022/09/19 16:35:18;;;;;;;4.37;3.00;;;14.30;99.90;;;;;;10549843;28;20237;-81
2022/09/19 16:40:57;;;;;;;4.93;3.05;;;14.20;99.90;;;;;;10551164;28;20202;-80
2022/09/19 16:46:20;;;;;;;7.43;4.23;;;14.10;99.90;;;;;;10550448;28;20402;-81
2022/09/19 16:51:41;;;;;;;6.27;4.27;;;14.00;1.00;;;;;;10564065;28;20523;-81
2022/09/19 16:57:02;;;;;;;7.93;5.43;;;14.00;1.00;;;;;;10563937;28;20188;-80
2022/09/19 17:02:34;;;;;;;8.63;4.80;;;13.90;99.90;;;;;;10544590;28;20494;-81
2022/09/19 17:07:56;;;;;;;6.67;4.83;;;13.70;1.00;;;;;;10549636;28;20511;-80
2022/09/19 17:13:18;;;;;;;8.67;5.33;;;13.50;1.00;;;;;;10549754;28;20236;-88
2022/09/19 17:18:40;;;;;;;11.57;6.93;;;13.30;1.00;;;;;;10548754;28;20198;-86
2022/09/19 17:24:02;;;;;;;11.17;7.50;;;13.20;1.00;;;;;;10535003;28;20285;-83
2022/09/19 17:29:23;;;;;;;12.43;7.50;;;13.00;1.00;;;;;;10548676;28;20193;-89
2022/09/19 17:34:45;;;;;;;13.73;7.60;;;12.80;2.20;;;;;;10562504;28;20466;-80
2022/09/19 17:40:07;;;;;;;10.63;6.33;;;12.80;50.70;;;;;;10548128;28;20202;-89
2022/09/19 17:45:31;;;;;;;11.20;6.20;;;12.60;92.70;;;;;;10562992;28;20193;-80
2022/09/19 17:50:51;;;;;;;16.47;9.83;;;12.50;99.90;;;;;;10562119;28;20205;-80
2022/09/19 17:56:21;;;;;;;19.00;12.20;;;12.40;99.90;;;;;;10547911;28;20240;-82
2022/09/19 18:07:25;;;;;;;26.20;15.57;;;12.20;1.00;;;;;;10569043;28;20211;-80
2022/09/19 18:12:49;;;;;;;24.70;13.53;;;12.10;1.00;;;;;;10564162;28;20269;-83
2022/09/19 18:18:11;;;;;;;20.87;11.17;;;12.10;99.90;;;;;;10550873;28;20419;-81
2022/09/19 18:23:33;;;;;;;18.83;9.63;;;12.00;99.90;;;;;;10563950;28;20199;-81
2022/09/19 18:28:58;;;;;;;11.17;7.20;;;11.90;99.90;;;;;;10550482;28;20195;-80
2022/09/19 18:34:20;;;;;;;16.47;8.37;;;11.80;1.00;;;;;;10551182;28;20231;-89
2022/09/19 18:39:41;;;;;;;21.37;13.00;;;11.80;1.00;;;;;;10548487;28;20209;-82
2022/09/19 18:45:05;;;;;;;13.63;8.47;;;11.70;1.00;;;;;;10552503;28;20219;-79
2022/09/19 18:50:27;;;;;;;10.20;4.70;;;11.80;1.00;;;;;;10563946;28;20197;-80
2022/09/19 18:55:55;;;;;;;4.57;2.93;;;11.70;1.00;;;;;;10555362;28;20241;-80
2022/09/19 19:06:37;;;;;;;8.10;6.13;;;11.60;1.00;;;;;;10542080;28;20241;-82
2022/09/19 19:19:13;;;;;;;8.37;5.30;;;11.50;1.00;;;;;;10570835;28;20202;-81
2022/09/19 19:30:39;;;;;;;5.83;3.40;;;11.40;1.00;;;;;;10573501;28;20193;-80
2022/09/19 19:36:13;;;;;;;14.90;8.10;;;11.40;1.00;;;;;;10575771;28;20255;-82
2022/09/19 19:41:36;;;;;;;15.53;8.77;;;11.30;1.00;;;;;;10572681;28;20191;-89
2022/09/19 19:46:57;;;;;;;12.37;7.70;;;11.20;1.00;;;;;;10546958;28;20196;-88
2022/09/19 19:52:19;;;;;;;7.93;5.03;;;11.20;1.00;;;;;;10578487;28;20205;-89
2022/09/19 19:57:46;;;;;;;3.30;2.40;;;11.20;1.00;;;;;;10574020;28;20194;-85
2022/09/19 20:03:08;;;;;;;3.57;2.17;;;11.20;1.00;;;;;;10561755;28;20235;-88
2022/09/19 20:08:35;;;;;;;2.37;2.13;;;11.20;1.00;;;;;;10573197;28;20194;-88
2022/09/19 20:13:59;;;;;;;2.07;1.40;;;11.10;1.00;;;;;;10540666;28;20229;-85
2022/09/19 20:19:20;;;;;;;2.23;1.70;;;11.00;1.00;;;;;;10557270;28;20191;-82
2022/09/19 20:24:42;;;;;;;4.17;2.20;;;11.00;45.90;;;;;;10575544;28;20182;-81
2022/09/19 20:30:06;;;;;;;5.40;2.90;;;10.90;67.90;;;;;;10588992;28;20240;-80
2022/09/19 20:35:28;;;;;;;7.93;4.60;;;10.90;46.60;;;;;;10554811;28;20535;-89
2022/09/19 20:40:58;;;;;;;7.97;4.50;;;10.90;18.00;;;;;;10554139;28;20220;-89
2022/09/19 20:46:20;;;;;;;5.07;3.37;;;10.80;1.00;;;;;;10553821;28;20200;-87
2022/09/19 20:51:42;;;;;;;7.20;3.67;;;10.70;1.00;;;;;;10572091;28;20241;-88
2022/09/19 20:57:04;;;;;;;5.77;3.53;;;10.70;1.00;;;;;;10567379;28;20195;-89
2022/09/19 21:02:26;;;;;;;8.17;4.30;;;10.60;1.00;;;;;;10550451;28;20199;-89
2022/09/19 21:07:48;;;;;;;10.33;4.83;;;10.60;1.00;;;;;;10564019;28;20198;-88
2022/09/19 21:13:09;;;;;;;8.57;4.80;;;10.60;1.00;;;;;;10567370;28;20215;-81
2022/09/19 21:18:30;;;;;;;17.27;5.77;;;10.50;1.00;;;;;;10566433;28;20356;-86
2022/09/19 21:23:52;;;;;;;8.47;4.80;;;10.50;10.80;;;;;;10565245;28;20428;-86
2022/09/19 21:29:15;;;;;;;6.43;4.20;;;10.60;21.70;;;;;;10523071;28;20191;-87
2022/09/19 21:34:36;;;;;;;8.70;4.03;;;10.50;1.00;;;;;;10527174;28;20235;-88
2022/09/19 21:39:57;;;;;;;10.37;4.80;;;10.50;22.40;;;;;;10549131;28;20344;-87
2022/09/19 21:45:19;;;;;;;6.03;3.80;;;10.50;19.40;;;;;;10563382;28;20196;-87
2022/09/19 21:50:40;;;;;;;6.73;3.50;;;10.40;12.60;;;;;;10548762;28;20238;-81
2022/09/19 21:56:02;;;;;;;6.17;3.27;;;10.30;49.40;;;;;;10562747;28;20202;-86
2022/09/19 22:01:29;;;;;;;8.40;4.27;;;10.30;43.50;;;;;;10562707;28;20198;-89
2022/09/19 22:06:52;;;;;;;8.43;5.23;;;10.30;56.80;;;;;;10561667;28;20269;-89
2022/09/19 22:12:13;;;;;;;8.60;3.90;;;10.40;35.30;;;;;;10547621;28;20493;-87
2022/09/19 22:17:35;;;;;;;6.70;4.37;;;10.40;61.30;;;;;;10562261;28;20197;-86
2022/09/19 22:22:57;;;;;;;12.67;6.10;;;10.50;30.40;;;;;;10561073;28;20216;-88
2022/09/19 22:28:19;;;;;;;11.60;6.17;;;10.50;32.80;;;;;;10560768;28;20191;-88
2022/09/19 22:33:43;;;;;;;8.40;4.70;;;10.60;21.50;;;;;;10547489;28;20232;-87
2022/09/19 22:39:04;;;;;;;6.20;4.17;;;10.60;7.80;;;;;;10547117;28;20229;-89
2022/09/19 22:44:26;;;;;;;3.20;2.30;;;10.60;5.40;;;;;;10546799;28;20191;-82
2022/09/19 22:49:47;;;;;;;2.43;2.00;;;10.50;4.60;;;;;;10546837;28;20194;-88
2022/09/19 22:55:08;;;;;;;4.77;2.43;;;10.50;9.10;;;;;;10546887;28;20223;-80
2022/09/19 23:00:31;;;;;;;2.47;2.07;;;10.40;38.30;;;;;;10561185;28;20512;-86
2022/09/19 23:06:06;;;;;;;2.57;1.70;;;10.40;7.30;;;;;;10537554;28;20205;-87
2022/09/19 23:11:29;;;;;;;4.73;1.60;;;10.40;1.00;;;;;;10546513;28;20203;-85
2022/09/19 23:16:52;;;;;;;2.90;2.13;;;10.50;1.00;;;;;;10546550;28;20221;-89
2022/09/19 23:22:13;;;;;;;4.50;2.07;;;10.40;1.00;;;;;;10560420;28;20388;-84
2022/09/19 23:27:34;;;;;;;2.70;2.03;;;10.40;1.00;;;;;;10518586;28;20209;-87
2022/09/19 23:32:56;;;;;;;5.30;2.27;;;10.50;1.00;;;;;;10512559;28;20229;-84
2022/09/19 23:38:18;;;;;;;4.97;1.73;;;10.50;1.00;;;;;;10560176;28;20247;-88
2022/09/19 23:43:39;;;;;;;3.27;2.07;;;10.50;1.00;;;;;;10564489;28;20184;-87
2022/09/19 23:49:02;;;;;;;2.67;2.00;;;10.40;1.00;;;;;;10553541;28;20193;-88
2022/09/19 23:54:24;;;;;;;2.80;1.90;;;10.40;1.00;;;;;;10553108;28;20220;-87
2022/09/19 23:59:45;;;;;;;3.93;2.10;;;10.30;1.00;;;;;;10567539;28;20540;-89
